CST,Max TemperatureF,Mean TemperatureF,Min TemperatureF,Max Dew PointF,MeanDew PointF,Min DewpointF,Max Humidity, Mean Humidity, Min Humidity, Max Sea Level PressureIn, Mean Sea Level PressureIn, Min Sea Level PressureIn, Max VisibilityMiles, Mean VisibilityMiles, Min VisibilityMiles, Max Wind SpeedMPH, Mean Wind SpeedMPH, Max Gust SpeedMPH,PrecipitationIn, CloudCover, Events, WindDirDegrees
2014-2-1,32,28,23,29,25,20,100,89,78,30.12,29.97,29.84,7,3,0,14,8,18,0.20,8,Fog-Snow,22
2014-2-2,23,15,7,18,9,3,83,68,40,30.37,30.27,30.14,10,10,7,15,7,18,0.00,6,,323
2014-2-3,22,12,1,4,2,-3,88,64,27,30.45,30.41,30.36,10,10,9,10,4,13,0.00,2,,261
2014-2-4,25,18,10,20,14,3,93,75,46,30.47,30.30,30.09,10,6,1,22,7,25,0.02,8,Snow,67
2014-2-5,25,17,9,23,17,6,93,81,63,30.48,30.22,30.00,10,3,0,25,14,33,0.02,7,Snow,359
2014-2-6,12,6,-1,6,-3,-8,85,72,45,30.52,30.47,30.40,10,9,6,20,11,24,T,3,Snow,253
2014-2-7,11,4,-3,0,-4,-8,79,66,38,30.48,30.44,30.41,10,10,10,21,10,24,0.00,3,,234
2014-2-8,17,12,6,13,8,0,88,79,61,30.40,30.24,30.13,10,5,0,10,5,18,0.07,8,Fog-Snow,186
2014-2-9,20,14,7,13,7,0,88,73,46,30.35,30.23,30.12,10,9,6,16,8,22,T,4,Snow,288
2014-2-10,13,6,-2,-2,-6,-9,73,58,28,30.56,30.46,30.35,10,10,10,15,8,17,0.00,0,,299
2014-2-11,15,6,-4,0,-4,-8,79,62,36,30.60,30.53,30.45,10,10,10,10,6,18,0.00,0,,245
2014-2-12,23,13,2,9,4,-2,84,65,38,30.44,30.25,30.07,10,10,10,12,5,20,0.00,5,,185
2014-2-13,30,23,15,27,14,6,78,63,35,30.06,29.75,29.52,10,8,1,18,8,28,T,7,Snow,204
2014-2-14,22,18,13,14,9,6,77,68,49,30.00,29.81,29.65,10,10,9,18,9,23,T,6,Snow,294
2014-2-15,24,15,6,14,8,1,86,71,53,30.15,30.06,29.96,10,7,1,14,6,21,0.01,6,Snow,214
2014-2-16,28,23,18,18,15,14,88,73,48,30.32,30.17,29.95,10,8,4,17,9,22,T,7,Snow,347
2014-2-17,29,26,22,25,20,16,96,84,65,30.30,29.91,29.68,10,3,0,22,11,29,0.38,8,Fog-Snow,144
2014-2-18,45,34,23,30,26,21,88,70,41,29.99,29.83,29.66,10,8,5,24,11,32,0.00,4,,210
2014-2-19,45,39,32,30,28,25,82,69,34,30.01,29.89,29.67,10,10,8,15,8,18,0.00,4,,243
2014-2-20,51,43,35,52,37,29,100,94,71,29.94,29.54,29.23,10,4,0,44,13,59,0.77,8,Fog-Rain-Thunderstorm,115
2014-2-21,37,33,28,30,21,8,87,65,34,29.87,29.64,29.40,10,8,2,39,23,51,T,5,Snow,245
2014-2-22,35,29,23,17,13,11,63,50,32,30.09,30.01,29.88,10,10,10,17,11,22,0.00,4,,261
2014-2-23,29,23,16,11,7,4,62,52,32,30.28,30.22,30.10,10,10,10,21,12,29,0.00,4,,284
2014-2-24,25,19,13,9,6,4,71,56,32,30.32,30.29,30.26,10,10,10,21,12,28,0.00,4,,278
2014-2-25,24,16,7,10,4,-4,68,57,35,30.29,30.24,30.19,10,10,10,17,12,23,T,4,Snow,284
2014-2-26,19,10,1,6,-3,-7,66,54,29,30.30,30.06,29.67,10,10,10,28,16,35,0.00,2,,254
2014-2-27,19,13,6,6,-8,-16,74,42,14,30.27,30.07,29.71,10,9,2,29,13,38,T,2,Snow,318
2014-2-28,32,19,6,16,5,-10,70,51,32,30.28,30.16,30.04,10,10,10,18,9,26,0.00,5,,156